Bryce Canyon, Utah
Current Conditions -  °F | °C
As of 10:53 AM on Monday 24 Nov 2014 (Local Time) from KBCE Reporting Station
Broken Clouds Broken Clouds  
Wind Chill: 18°   Ceiling: 6000
Heat Index: 31°   Visibility: 10mi
Dew Point: 12°   Wind: 23mph
Humidity: 46%   Direction: 320°NW
Pressure: 30.29"   Gusts: 33mph
Location:  37.63°N, 112.17°W
Report Text: KBCE 241753Z AUTO 32020G29KT 10SM FEW049 BKN060 BKN070 M01/M11 A3029 RMK AO2 PK WND 31032/1707 SLP252 T10061111 11006 21150 51012
Loading
Personal Weather Stations






























Interactive Weather Map New forecast layout! Learn more

10-Day Weather Forecast

Advertisements
Track Severe Weather on mobile